Avalon, California
Current Conditions -  °F | °C
As of 9:51 PM on Thursday 30 Oct 2014 (Local Time) from KAVX Reporting Station
Few Clouds Few Clouds  
Wind Chill: 63°   Ceiling: Unl
Heat Index: 63°   Visibility: 10mi
Dew Point: 52°   Wind: 0mph
Humidity: 67%   Direction: NA
Pressure: 29.99"   Gusts: NA
Location:  33.34°N, 118.33°W
Report Text: KAVX 310451Z AUTO 00000KT 10SM FEW002 17/11 A2999 RMK AO2 SLP134 T01720111
Loading
Personal Weather Stations






























Interactive Weather Map
Tropical Storm Tracking
New forecast layout! Learn more

10-Day Weather Forecast

Advertisements
Track Severe Weather on mobile